createdAt,value
2022-08-05T00:00:17.499Z,6.05
2022-08-05T00:02:51.309Z,6.13
2022-08-05T00:06:02.941Z,6.20
2022-08-05T00:08:32.719Z,4.82
2022-08-05T00:11:00.496Z,8.93
2022-08-05T00:13:39.193Z,5.72
2022-08-05T00:16:10.857Z,7.13
2022-08-05T00:18:42.107Z,6.15
2022-08-05T00:21:10.042Z,5.40
2022-08-05T00:23:45.616Z,3.80
2022-08-05T00:26:16.359Z,5.13
2022-08-05T00:28:45.768Z,6.15
2022-08-05T00:31:13.738Z,5.68
2022-08-05T00:34:55.925Z,4.07
2022-08-05T00:37:11.093Z,5.95
2022-08-05T00:39:15.677Z,6.25
2022-08-05T00:41:54.923Z,4.65
2022-08-05T00:44:30.636Z,9.55
2022-08-05T00:47:02.232Z,7.25
2022-08-05T00:49:44.651Z,5.03
2022-08-05T00:52:28.657Z,4.47
2022-08-05T00:54:58.584Z,7.10
2022-08-05T00:57:38.261Z,6.07
2022-08-05T01:00:13.736Z,6.32
2022-08-05T01:02:44.165Z,3.47
2022-08-05T01:05:15.803Z,7.10
2022-08-05T01:08:29.840Z,9.27
2022-08-05T01:10:58.029Z,6.65
2022-08-05T01:13:58.471Z,8.52
2022-08-05T01:17:00.868Z,7.35
2022-08-05T01:20:00.977Z,6.05
2022-08-05T01:22:49.741Z,4.53
2022-08-05T01:25:40.367Z,4.60
2022-08-05T01:28:33.096Z,6.10
2022-08-05T01:31:22.035Z,7.78
2022-08-05T01:33:55.557Z,6.47
2022-08-05T01:36:28.357Z,4.07
2022-08-05T01:39:01.211Z,7.70
2022-08-05T01:41:32.644Z,6.40
2022-08-05T01:44:02.294Z,6.60
2022-08-05T01:46:42.850Z,10.32
2022-08-05T01:49:23.300Z,5.82
2022-08-05T01:51:58.298Z,5.93
2022-08-05T01:54:46.157Z,4.50
2022-08-05T01:58:10.631Z,5.80
2022-08-05T02:00:12.841Z,7.97
2022-08-05T02:02:55.366Z,5.47
2022-08-05T02:05:34.081Z,5.90
2022-08-05T02:08:02.122Z,5.47
2022-08-05T02:10:36.486Z,6.68
2022-08-05T02:13:16.144Z,8.38
2022-08-05T02:15:53.973Z,6.72
2022-08-05T02:18:41.944Z,6.25
2022-08-05T02:21:22.397Z,5.63
2022-08-05T02:23:54.587Z,7.13
2022-08-05T02:26:27.553Z,5.25
2022-08-05T02:28:56.238Z,5.18
2022-08-05T02:31:29.375Z,7.90
2022-08-05T02:34:06.631Z,4.68
2022-08-05T02:36:42.687Z,4.60
2022-08-05T02:39:10.918Z,5.57
2022-08-05T02:41:58.049Z,5.47
2022-08-05T02:44:32.476Z,5.05
2022-08-05T02:47:04.395Z,5.78
2022-08-05T02:49:37.741Z,4.78
2022-08-05T02:52:29.303Z,7.10
2022-08-05T02:55:01.940Z,6.88
2022-08-05T02:58:11.773Z,5.50
2022-08-05T03:00:20.641Z,6.70
2022-08-05T03:02:51.907Z,5.15
2022-08-05T03:05:21.641Z,5.97
2022-08-05T03:08:11.499Z,4.85
2022-08-05T03:10:42.087Z,4.60
2022-08-05T03:13:28.269Z,5.15
2022-08-05T03:16:15.791Z,6.53
2022-08-05T03:18:43.449Z,4.88
2022-08-05T03:21:13.837Z,6.65
2022-08-05T03:23:42.978Z,6.97
2022-08-05T03:26:31.733Z,4.35
2022-08-05T03:29:02.544Z,4.30
2022-08-05T03:31:56.888Z,13.48
2022-08-05T03:34:24.325Z,7.15
2022-08-05T03:36:57.016Z,5.13
2022-08-05T03:39:27.249Z,6.20
2022-08-05T03:41:56.534Z,8.10
2022-08-05T03:44:24.656Z,9.00
2022-08-05T03:46:52.469Z,5.93
2022-08-05T03:49:19.839Z,8.18
2022-08-05T03:52:38.007Z,7.22
2022-08-05T03:56:01.624Z,10.77
2022-08-05T03:57:51.559Z,9.93
2022-08-05T04:00:26.561Z,6.72
2022-08-05T04:02:58.535Z,8.18
2022-08-05T04:05:33.292Z,8.02
2022-08-05T04:08:14.788Z,10.77
2022-08-05T04:10:56.844Z,6.93
2022-08-05T04:13:49.692Z,7.47
2022-08-05T04:16:25.320Z,10.43
2022-08-05T04:19:00.533Z,8.55
2022-08-05T04:22:08.896Z,10.27
2022-08-05T04:24:19.255Z,6.97
2022-08-05T04:26:50.122Z,8.52
2022-08-05T04:29:17.340Z,8.00
2022-08-05T04:31:44.672Z,8.38
2022-08-05T04:34:32.550Z,7.13
2022-08-05T04:37:03.173Z,6.95
2022-08-05T04:39:31.376Z,8.50
2022-08-05T04:41:59.754Z,8.38
2022-08-05T04:44:30.709Z,8.55
2022-08-05T04:46:59.288Z,7.20
2022-08-05T04:49:38.426Z,6.55
2022-08-05T04:52:15.912Z,11.23
2022-08-05T04:54:45.207Z,10.68
2022-08-05T04:57:12.513Z,10.65
2022-08-05T04:59:40.729Z,7.82
2022-08-05T05:02:41.457Z,9.10
2022-08-05T05:05:03.105Z,9.90
2022-08-05T05:07:32.373Z,10.90
2022-08-05T05:10:06.611Z,6.25
2022-08-05T05:12:33.996Z,14.88
2022-08-05T05:15:05.413Z,10.07
2022-08-05T05:17:57.051Z,12.40
2022-08-05T05:20:28.695Z,9.30
2022-08-05T05:22:57.660Z,8.02
2022-08-05T05:25:40.585Z,7.57
2022-08-05T05:28:09.412Z,11.15
2022-08-05T05:30:37.589Z,6.30
2022-08-05T05:33:16.193Z,9.32
2022-08-05T05:35:46.773Z,8.32
2022-08-05T05:38:22.607Z,10.40
2022-08-05T05:40:55.974Z,8.13
2022-08-05T05:43:57.597Z,6.50
2022-08-05T05:46:17.590Z,8.00
2022-08-05T05:48:48.205Z,9.63
2022-08-05T05:51:22.830Z,9.40
2022-08-05T05:53:57.392Z,10.15
2022-08-05T05:56:32.406Z,10.45
2022-08-05T05:59:06.789Z,8.65
2022-08-05T06:01:39.766Z,11.27
2022-08-05T06:04:12.029Z,7.30
2022-08-05T06:06:46.674Z,9.25
2022-08-05T06:09:24.931Z,12.93
2022-08-05T06:12:01.070Z,10.02
2022-08-05T06:14:30.643Z,9.27
2022-08-05T06:16:58.818Z,7.18
2022-08-05T06:19:34.875Z,7.60
2022-08-05T06:22:09.820Z,8.63
2022-08-05T06:24:48.366Z,9.68
2022-08-05T06:28:09.157Z,12.52
2022-08-05T06:30:17.815Z,11.65
2022-08-05T06:32:50.678Z,13.35
2022-08-05T06:36:03.059Z,11.10
2022-08-05T06:38:11.208Z,8.38
2022-08-05T06:40:44.460Z,10.07
2022-08-05T06:43:59.786Z,8.25
2022-08-05T06:46:03.809Z,6.25
2022-08-05T06:48:56.370Z,12.75
2022-08-05T06:51:29.112Z,8.98
2022-08-05T06:54:02.054Z,6.15
2022-08-05T06:56:34.530Z,9.57
2022-08-05T06:59:09.378Z,10.10
2022-08-05T07:01:37.220Z,13.43
2022-08-05T07:04:08.209Z,9.10
2022-08-05T07:06:38.831Z,11.30
2022-08-05T07:09:06.089Z,7.60
2022-08-05T07:11:37.278Z,9.13
2022-08-05T07:14:29.704Z,7.53
2022-08-05T07:18:01.835Z,13.20
2022-08-05T07:22:42.239Z,8.80
2022-08-05T07:25:23.620Z,8.93
2022-08-05T07:28:03.916Z,6.93
2022-08-05T07:30:39.231Z,7.70
2022-08-05T07:33:16.046Z,8.07
2022-08-05T07:36:03.643Z,10.38
2022-08-05T07:38:42.634Z,7.20
2022-08-05T07:42:06.976Z,7.45
2022-08-05T07:44:04.591Z,9.70
2022-08-05T07:46:33.800Z,5.75
2022-08-05T07:49:05.770Z,8.73
2022-08-05T07:51:48.916Z,6.20
2022-08-05T07:54:31.430Z,10.30
2022-08-05T07:57:17.814Z,9.07
2022-08-05T07:59:50.019Z,8.23
2022-08-05T08:02:18.039Z,10.70
2022-08-05T08:04:47.435Z,7.75
2022-08-05T08:07:15.382Z,7.53
2022-08-05T08:09:43.760Z,9.48
2022-08-05T08:12:35.082Z,7.75
2022-08-05T08:15:02.531Z,6.57
2022-08-05T08:17:31.618Z,8.90
2022-08-05T08:20:22.791Z,6.68
2022-08-05T08:22:55.734Z,7.82
2022-08-05T08:25:26.794Z,6.10
2022-08-05T08:28:18.254Z,8.98
2022-08-05T08:30:47.737Z,8.57
2022-08-05T08:33:17.619Z,8.70
2022-08-05T08:35:52.883Z,9.73
2022-08-05T08:38:32.236Z,8.82
2022-08-05T08:41:07.421Z,10.07
2022-08-05T08:45:19.497Z,8.93
2022-08-05T08:46:26.951Z,9.25
2022-08-05T08:49:06.109Z,6.20
2022-08-05T08:52:04.085Z,7.32
2022-08-05T08:54:36.445Z,7.55
2022-08-05T08:57:11.362Z,6.68
2022-08-05T08:59:41.674Z,7.68
2022-08-05T09:02:14.830Z,6.55
2022-08-05T09:05:16.936Z,8.48
2022-08-05T09:07:40.095Z,5.68
2022-08-05T09:10:28.025Z,9.68
2022-08-05T09:13:04.851Z,7.35
2022-08-05T09:15:37.120Z,7.40
2022-08-05T09:18:09.868Z,6.78
2022-08-05T09:20:43.578Z,4.40
2022-08-05T09:23:19.922Z,4.90
2022-08-05T09:26:02.755Z,4.38
2022-08-05T09:28:34.011Z,5.40
2022-08-05T09:31:23.193Z,5.72
2022-08-05T09:34:01.038Z,6.00
2022-08-05T09:36:56.438Z,3.30
2022-08-05T09:39:41.167Z,3.50
2022-08-05T09:42:23.028Z,5.20
2022-08-05T09:44:56.323Z,2.28
2022-08-05T09:47:34.965Z,4.47
2022-08-05T09:50:18.223Z,4.60
2022-08-05T09:53:01.389Z,6.15
2022-08-05T09:55:58.678Z,7.38
2022-08-05T09:58:23.654Z,6.07
2022-08-05T10:01:01.994Z,4.40
2022-08-05T10:04:00.409Z,3.72
2022-08-05T10:06:28.494Z,4.20
2022-08-05T10:09:09.328Z,2.55
2022-08-05T10:11:52.555Z,3.58
2022-08-05T10:14:23.844Z,3.22
2022-08-05T10:16:58.781Z,2.05
2022-08-05T10:19:31.945Z,2.53
2022-08-05T10:22:29.729Z,1.75
2022-08-05T10:24:57.846Z,3.42
2022-08-05T10:28:09.736Z,2.85
2022-08-05T10:32:47.510Z,2.25
2022-08-05T10:33:14.810Z,2.70
2022-08-05T10:35:44.487Z,3.58
2022-08-05T10:38:14.645Z,1.50
2022-08-05T10:40:52.257Z,2.67
2022-08-05T10:43:36.357Z,4.88
2022-08-05T10:46:08.769Z,3.78
2022-08-05T10:48:58.028Z,2.15
2022-08-05T10:51:58.295Z,2.83
2022-08-05T10:55:06.259Z,1.75
2022-08-05T10:57:34.934Z,5.00
2022-08-05T11:00:18.192Z,1.85
2022-08-05T11:03:24.419Z,5.72
2022-08-05T11:06:04.457Z,6.38
2022-08-05T11:08:38.205Z,2.67
2022-08-05T11:11:44.608Z,1.73
2022-08-05T11:15:01.162Z,2.65
2022-08-05T11:17:57.369Z,1.55
2022-08-05T11:20:51.405Z,3.65
2022-08-05T11:24:03.847Z,3.05
2022-08-05T11:26:32.598Z,4.05
2022-08-05T11:29:11.552Z,4.43
2022-08-05T11:31:54.115Z,3.00
2022-08-05T11:34:37.785Z,3.10
2022-08-05T11:37:55.129Z,3.53
2022-08-05T11:40:00.678Z,2.50
2022-08-05T11:42:40.259Z,2.78
2022-08-05T11:45:14.590Z,2.90
2022-08-05T11:48:00.629Z,4.70
2022-08-05T11:50:28.106Z,1.75
2022-08-05T11:52:58.190Z,3.17
2022-08-05T11:55:31.717Z,2.78
2022-08-05T11:58:10.146Z,4.63
2022-08-05T12:00:41.223Z,1.67
2022-08-05T12:03:24.110Z,1.70
2022-08-05T12:06:05.910Z,3.65
2022-08-05T12:08:34.296Z,2.80
2022-08-05T12:11:09.392Z,5.00
2022-08-05T12:14:04.289Z,4.72
2022-08-05T12:16:38.553Z,3.50
2022-08-05T12:19:10.847Z,1.65
2022-08-05T12:22:01.299Z,3.88
2022-08-05T12:24:28.596Z,2.03
2022-08-05T12:26:57.400Z,2.40
2022-08-05T12:29:29.007Z,2.55
2022-08-05T12:32:09.601Z,1.80
2022-08-05T12:34:38.456Z,2.45
2022-08-05T12:37:17.542Z,1.48
2022-08-05T12:39:53.877Z,1.85
2022-08-05T12:42:25.314Z,4.50
2022-08-05T12:44:52.674Z,1.10
2022-08-05T12:47:30.945Z,4.35
2022-08-05T12:50:03.065Z,1.90
2022-08-05T12:52:42.686Z,2.50
2022-08-05T12:55:25.775Z,2.88
2022-08-05T12:58:48.635Z,2.47
2022-08-05T13:02:01.312Z,2.53
2022-08-05T13:03:41.725Z,6.72
2022-08-05T13:06:19.851Z,5.30
2022-08-05T13:08:52.245Z,3.53
2022-08-05T13:12:02.258Z,4.25
2022-08-05T13:14:24.673Z,2.25
2022-08-05T13:17:03.601Z,1.65
2022-08-05T13:19:51.773Z,2.28
2022-08-05T13:22:28.338Z,3.83
2022-08-05T13:25:00.863Z,3.33
2022-08-05T13:27:40.533Z,2.15
2022-08-05T13:30:35.105Z,4.28
2022-08-05T13:33:01.409Z,1.25
2022-08-05T13:35:42.505Z,3.20
2022-08-05T13:38:20.395Z,3.25
2022-08-05T13:40:58.672Z,1.30
2022-08-05T13:43:44.130Z,2.85
2022-08-05T13:46:14.087Z,1.95
2022-08-05T13:48:58.484Z,1.60
2022-08-05T13:51:40.343Z,1.08
2022-08-05T13:54:12.291Z,1.15
2022-08-05T13:56:51.169Z,1.40
2022-08-05T13:59:24.256Z,1.73
2022-08-05T14:01:58.803Z,1.73
2022-08-05T14:04:53.675Z,1.50
2022-08-05T14:07:55.536Z,1.08
2022-08-05T14:10:19.165Z,3.70
2022-08-05T14:12:56.948Z,2.90
2022-08-05T14:16:09.127Z,1.40
2022-08-05T14:18:23.380Z,1.55
2022-08-05T14:20:52.927Z,0.98
2022-08-05T14:23:25.761Z,1.67
2022-08-05T14:25:59.031Z,1.70
2022-08-05T14:28:28.987Z,1.10
2022-08-05T14:30:57.154Z,1.90
2022-08-05T14:33:24.602Z,2.88
2022-08-05T14:35:54.405Z,1.85
2022-08-05T14:38:32.713Z,1.45
2022-08-05T14:41:06.046Z,0.88
2022-08-05T14:44:02.221Z,1.27
2022-08-05T14:46:27.206Z,2.08
2022-08-05T14:48:58.954Z,1.25
2022-08-05T14:51:30.957Z,1.25
2022-08-05T14:54:26.390Z,3.50
2022-08-05T14:56:47.985Z,1.98
2022-08-05T14:59:21.790Z,2.13
2022-08-05T15:01:51.619Z,2.05
2022-08-05T15:04:23.698Z,2.50
2022-08-05T15:06:54.633Z,3.53
2022-08-05T15:09:51.287Z,3.60
2022-08-05T15:12:16.980Z,1.67
2022-08-05T15:14:49.479Z,5.82
2022-08-05T15:17:46.869Z,0.75
2022-08-05T15:20:13.398Z,2.28
2022-08-05T15:22:46.247Z,4.00
2022-08-05T15:25:51.916Z,0.77
2022-08-05T15:28:14.311Z,3.70
2022-08-05T15:30:45.509Z,1.95
2022-08-05T15:33:56.821Z,1.42
2022-08-05T15:36:03.931Z,0.68
2022-08-05T15:38:36.377Z,1.55
2022-08-05T15:41:22.822Z,1.73
2022-08-05T15:43:55.834Z,0.43
2022-08-05T15:46:24.624Z,2.78
2022-08-05T15:48:58.653Z,4.93
2022-08-05T15:52:13.239Z,1.23
2022-08-05T15:54:17.482Z,1.45
2022-08-05T15:56:44.779Z,2.33
2022-08-05T15:59:19.877Z,2.03
2022-08-05T16:01:53.713Z,2.75
2022-08-05T16:04:25.233Z,2.90
2022-08-05T16:06:55.664Z,5.50
2022-08-05T16:09:24.324Z,0.95
2022-08-05T16:11:53.920Z,2.55
2022-08-05T16:14:22.586Z,2.40
2022-08-05T16:16:50.447Z,2.97
2022-08-05T16:19:19.242Z,1.33
2022-08-05T16:22:05.915Z,3.60
2022-08-05T16:24:41.732Z,1.35
2022-08-05T16:27:32.133Z,5.45
2022-08-05T16:30:08.449Z,0.90
2022-08-05T16:32:53.443Z,2.65
2022-08-05T16:35:27.702Z,1.45
2022-08-05T16:38:03.340Z,1.63
2022-08-05T16:40:47.851Z,3.10
2022-08-05T16:43:23.837Z,1.73
2022-08-05T16:46:06.200Z,3.42
2022-08-05T16:48:39.733Z,1.25
2022-08-05T16:51:09.719Z,2.92
2022-08-05T16:54:04.214Z,4.05
2022-08-05T16:56:27.715Z,1.60
2022-08-05T16:58:55.519Z,0.90
2022-08-05T17:01:24.245Z,2.67
2022-08-05T17:03:53.985Z,4.35
2022-08-05T17:06:24.598Z,3.80
2022-08-05T17:08:54.705Z,2.20
2022-08-05T17:11:23.320Z,2.40
2022-08-05T17:14:05.361Z,3.15
2022-08-05T17:16:40.902Z,2.47
2022-08-05T17:19:10.799Z,2.95
2022-08-05T17:21:39.637Z,2.95
2022-08-05T17:24:19.368Z,3.22
2022-08-05T17:26:59.985Z,2.65
2022-08-05T17:29:33.250Z,2.45
2022-08-05T17:32:01.553Z,2.38
2022-08-05T17:34:30.262Z,2.60
2022-08-05T17:37:00.538Z,2.58
2022-08-05T17:39:33.452Z,3.63
2022-08-05T17:42:19.170Z,1.90
2022-08-05T17:44:52.615Z,2.17
2022-08-05T17:47:21.976Z,3.15
2022-08-05T17:50:04.248Z,3.53
2022-08-05T17:52:53.344Z,3.20
2022-08-05T17:55:27.404Z,3.28
2022-08-05T17:58:11.022Z,2.05
2022-08-05T18:00:47.492Z,1.50
2022-08-05T18:03:55.913Z,3.47
2022-08-05T18:06:11.313Z,2.78
2022-08-05T18:08:40.506Z,2.67
2022-08-05T18:11:23.831Z,3.45
2022-08-05T18:13:55.950Z,3.22
2022-08-05T18:16:23.287Z,3.78
2022-08-05T18:18:53.238Z,2.83
2022-08-05T18:21:22.954Z,4.18
2022-08-05T18:23:54.339Z,2.58
2022-08-05T18:26:29.113Z,2.40
2022-08-05T18:28:57.366Z,3.70
2022-08-05T18:31:24.805Z,4.40
2022-08-05T18:33:52.462Z,3.78
2022-08-05T18:36:19.915Z,3.85
2022-08-05T18:38:55.678Z,3.83
2022-08-05T18:41:56.907Z,3.53
2022-08-05T18:44:12.711Z,3.67
2022-08-05T18:46:40.999Z,2.30
2022-08-05T18:49:30.708Z,1.77
2022-08-05T18:52:33.064Z,2.05
2022-08-05T18:55:02.495Z,2.83
2022-08-05T18:57:43.274Z,3.35
2022-08-05T19:00:20.504Z,1.67
2022-08-05T19:02:48.272Z,3.22
2022-08-05T19:06:13.575Z,5.82
2022-08-05T19:08:13.441Z,2.17
2022-08-05T19:10:42.981Z,3.72
2022-08-05T19:13:12.335Z,2.70
2022-08-05T19:15:59.735Z,4.70
2022-08-05T19:18:31.512Z,3.05
2022-08-05T19:21:01.664Z,4.95
2022-08-05T19:24:07.723Z,2.70
2022-08-05T19:26:22.423Z,2.75
2022-08-05T19:28:52.240Z,3.05
2022-08-05T19:31:22.927Z,5.75
2022-08-05T19:33:56.284Z,2.00
2022-08-05T19:36:29.347Z,1.25
2022-08-05T19:39:00.912Z,4.28
2022-08-05T19:41:34.746Z,0.77
2022-08-05T19:44:19.026Z,1.65
2022-08-05T19:46:46.596Z,1.05
2022-08-05T19:49:17.117Z,0.85
2022-08-05T19:52:08.446Z,3.53
2022-08-05T19:54:36.946Z,2.08
2022-08-05T19:57:06.895Z,1.58
2022-08-05T19:59:55.307Z,2.28
2022-08-05T20:02:28.019Z,1.23
2022-08-05T20:04:59.205Z,2.28
2022-08-05T20:07:45.919Z,2.72
2022-08-05T20:10:22.407Z,3.92
2022-08-05T20:12:55.046Z,2.40
2022-08-05T20:15:51.597Z,2.28
2022-08-05T20:18:32.775Z,3.28
2022-08-05T20:20:57.765Z,1.52
2022-08-05T20:23:39.453Z,1.48
2022-08-05T20:26:26.568Z,1.50
2022-08-05T20:28:57.382Z,1.90
2022-08-05T20:31:37.281Z,1.00
2022-08-05T20:34:14.168Z,3.33
2022-08-05T20:36:43.033Z,2.00
2022-08-05T20:39:16.183Z,3.38
2022-08-05T20:41:49.164Z,2.38
2022-08-05T20:44:30.121Z,2.08
2022-08-05T20:47:00.270Z,2.22
2022-08-05T20:49:27.744Z,3.97
2022-08-05T20:51:58.034Z,4.32
2022-08-05T20:54:57.641Z,4.05
2022-08-05T20:57:42.744Z,1.63
2022-08-05T21:00:21.008Z,2.58
2022-08-05T21:02:57.815Z,3.28
2022-08-05T21:05:25.186Z,2.00
2022-08-05T21:07:52.763Z,2.08
2022-08-05T21:10:22.536Z,4.68
2022-08-05T21:12:58.039Z,1.48
2022-08-05T21:15:36.657Z,4.63
2022-08-05T21:18:04.459Z,3.63
2022-08-05T21:20:33.036Z,2.88
2022-08-05T21:23:01.061Z,2.78
2022-08-05T21:25:33.736Z,4.93
2022-08-05T21:28:04.110Z,3.17
2022-08-05T21:30:31.693Z,2.38
2022-08-05T21:32:59.917Z,4.15
2022-08-05T21:35:55.862Z,5.22
2022-08-05T21:38:17.656Z,4.93
2022-08-05T21:40:45.177Z,2.58
2022-08-05T21:43:17.858Z,3.53
2022-08-05T21:46:00.211Z,2.00
2022-08-05T21:48:28.338Z,4.47
2022-08-05T21:51:00.505Z,2.17
2022-08-05T21:53:28.081Z,3.00
2022-08-05T21:56:06.359Z,2.10
2022-08-05T21:58:57.070Z,2.90
2022-08-05T22:01:24.831Z,2.13
2022-08-05T22:03:53.636Z,2.00
2022-08-05T22:06:35.348Z,3.25
2022-08-05T22:09:14.849Z,2.70
2022-08-05T22:11:46.845Z,2.05
2022-08-05T22:14:33.837Z,2.13
2022-08-05T22:17:07.033Z,2.17
2022-08-05T22:20:00.502Z,3.75
2022-08-05T22:22:27.590Z,3.10
2022-08-05T22:25:21.564Z,3.65
2022-08-05T22:28:11.129Z,2.85
2022-08-05T22:30:55.426Z,2.75
2022-08-05T22:33:58.605Z,1.30
2022-08-05T22:36:15.665Z,2.33
2022-08-05T22:38:48.919Z,2.80
2022-08-05T22:42:04.133Z,2.28
2022-08-05T22:44:08.484Z,2.38
2022-08-05T22:46:40.139Z,1.98
2022-08-05T22:50:18.483Z,2.42
2022-08-05T22:52:05.805Z,3.28
2022-08-05T22:54:36.466Z,3.80
2022-08-05T22:57:05.947Z,2.17
2022-08-05T22:59:47.375Z,0.95
2022-08-05T23:02:29.193Z,2.38
2022-08-05T23:05:01.410Z,4.55
2022-08-05T23:07:32.413Z,2.25
2022-08-05T23:10:03.873Z,5.40
2022-08-05T23:12:32.806Z,3.88
2022-08-05T23:15:08.951Z,3.65
2022-08-05T23:17:37.873Z,2.97
2022-08-05T23:20:24.515Z,4.07
2022-08-05T23:22:55.605Z,1.08
2022-08-05T23:25:54.773Z,4.57
2022-08-05T23:28:15.638Z,3.17
2022-08-05T23:30:53.234Z,1.55
2022-08-05T23:34:05.471Z,3.63
2022-08-05T23:36:18.063Z,1.00
2022-08-05T23:38:45.382Z,0.82
2022-08-05T23:41:13.463Z,4.20
2022-08-05T23:44:04.893Z,3.55
2022-08-05T23:46:31.303Z,2.75
2022-08-05T23:48:59.751Z,4.20
2022-08-05T23:51:54.238Z,2.78
2022-08-05T23:54:26.065Z,3.53
2022-08-05T23:57:03.635Z,2.83
